Time;durP1;ratioP1;P1;durP2;ratioP2;P2;SDS_P1;SDS_P2;PMS_P1;PMS_P2;Temp;Humidity;BMP_temperature;BMP_pressure;BME280_temperature;BME280_humidity;BME280_pressure;Samples;Min_cycle;Max_cycle;Signal;HPM_P1;HPM_P2
2024/01/22 00:00:50;;;;;;;3.93;2.00;;;;;;;;;;5055195;28;20059;-54
2024/01/22 00:03:17;;;;;;;3.57;1.97;;;;;;;;;;5054098;28;20035;-53
2024/01/22 00:05:43;;;;;;;2.67;1.80;;;;;;;;;;5055030;28;20032;-54
2024/01/22 00:08:11;;;;;;;3.47;1.95;;;;;;;;;;5055193;28;20032;-53
2024/01/22 00:10:37;;;;;;;2.90;1.90;;;;;;;;;;5055303;28;20033;-54
2024/01/22 00:13:03;;;;;;;5.10;2.20;;;;;;;;;;5054539;28;20159;-53
2024/01/22 00:15:29;;;;;;;4.63;2.30;;;;;;;;;;5054528;28;20480;-52
2024/01/22 00:17:55;;;;;;;4.45;2.28;;;;;;;;;;5055310;28;20024;-51
2024/01/22 00:20:22;;;;;;;5.17;2.23;;;;;;;;;;5054423;28;20021;-54
2024/01/22 00:22:48;;;;;;;6.17;2.20;;;;;;;;;;5054274;28;20037;-51
2024/01/22 00:25:14;;;;;;;2.83;1.67;;;;;;;;;;5054453;28;20131;-54
2024/01/22 00:27:40;;;;;;;4.20;2.70;;;;;;;;;;5054288;28;20036;-54
2024/01/22 00:30:08;;;;;;;3.95;2.20;;;;;;;;;;5054195;28;20060;-53
2024/01/22 00:32:34;;;;;;;5.18;2.38;;;;;;;;;;5054442;28;20033;-53
2024/01/22 00:35:00;;;;;;;3.70;2.28;;;;;;;;;;5054210;28;20439;-55
2024/01/22 00:37:26;;;;;;;6.05;2.40;;;;;;;;;;5054656;28;20351;-53
2024/01/22 00:39:55;;;;;;;5.13;2.67;;;;;;;;;;5054166;28;20033;-51
2024/01/22 00:42:21;;;;;;;4.77;2.47;;;;;;;;;;5054257;28;20060;-55
2024/01/22 00:44:47;;;;;;;2.88;1.67;;;;;;;;;;5054042;28;20082;-54
2024/01/22 00:47:13;;;;;;;4.10;2.20;;;;;;;;;;5054526;28;20386;-49
2024/01/22 00:49:39;;;;;;;6.47;1.93;;;;;;;;;;5054512;28;20025;-52
2024/01/22 00:52:05;;;;;;;3.90;2.10;;;;;;;;;;5054147;28;20163;-54
2024/01/22 00:54:31;;;;;;;3.50;1.67;;;;;;;;;;5053905;28;20049;-51
2024/01/22 00:56:58;;;;;;;3.30;1.52;;;;;;;;;;5053896;28;20033;-55
2024/01/22 00:59:24;;;;;;;4.43;2.08;;;;;;;;;;5054102;28;20025;-54
2024/01/22 01:01:50;;;;;;;2.83;1.80;;;;;;;;;;5053710;28;20039;-52
2024/01/22 01:04:16;;;;;;;4.07;2.33;;;;;;;;;;5054044;28;20025;-53
2024/01/22 01:06:42;;;;;;;3.47;2.03;;;;;;;;;;5053762;28;20430;-53
2024/01/22 01:09:08;;;;;;;9.07;1.80;;;;;;;;;;5054354;28;20025;-53
2024/01/22 01:11:34;;;;;;;3.97;2.25;;;;;;;;;;5053640;28;20051;-53
2024/01/22 01:14:00;;;;;;;4.47;2.37;;;;;;;;;;5054207;28;20422;-51
2024/01/22 01:16:28;;;;;;;2.93;1.70;;;;;;;;;;5053300;28;20060;-54
2024/01/22 01:18:54;;;;;;;3.70;2.20;;;;;;;;;;5054214;28;20044;-52
2024/01/22 01:21:23;;;;;;;3.83;2.40;;;;;;;;;;5054355;28;20435;-54
2024/01/22 01:23:49;;;;;;;3.00;1.60;;;;;;;;;;5054062;28;20429;-52
2024/01/22 01:26:16;;;;;;;3.57;1.97;;;;;;;;;;5053866;28;20497;-55
2024/01/22 01:28:42;;;;;;;3.53;2.20;;;;;;;;;;5053605;28;20486;-52
2024/01/22 01:31:08;;;;;;;5.60;1.83;;;;;;;;;;5053211;28;20037;-53
2024/01/22 01:33:34;;;;;;;3.50;2.30;;;;;;;;;;5053453;28;20025;-55
2024/01/22 01:36:00;;;;;;;4.77;1.97;;;;;;;;;;5053826;28;20025;-50
2024/01/22 01:38:26;;;;;;;9.30;2.40;;;;;;;;;;5054052;28;20048;-52
2024/01/22 01:40:52;;;;;;;3.63;2.30;;;;;;;;;;5053356;28;20479;-53
2024/01/22 01:43:19;;;;;;;3.60;2.20;;;;;;;;;;5053348;28;20033;-52
2024/01/22 01:45:45;;;;;;;3.93;2.60;;;;;;;;;;5053441;28;20021;-52
2024/01/22 01:48:11;;;;;;;3.37;2.03;;;;;;;;;;5053922;28;20025;-55
2024/01/22 01:50:37;;;;;;;3.80;2.07;;;;;;;;;;5053337;28;20379;-51
2024/01/22 01:53:04;;;;;;;5.20;2.90;;;;;;;;;;5052988;28;20021;-52
2024/01/22 01:55:30;;;;;;;2.23;1.67;;;;;;;;;;5053267;28;20045;-54
2024/01/22 01:57:56;;;;;;;6.07;2.57;;;;;;;;;;5053352;28;20025;-54
2024/01/22 02:00:22;;;;;;;5.40;2.33;;;;;;;;;;5052007;28;20403;-55
2024/01/22 02:02:48;;;;;;;2.87;1.70;;;;;;;;;;5052822;28;20029;-55
2024/01/22 02:05:14;;;;;;;3.13;1.70;;;;;;;;;;5053135;28;20021;-51
2024/01/22 02:07:40;;;;;;;2.83;1.70;;;;;;;;;;5053455;28;20375;-54
2024/01/22 02:10:06;;;;;;;3.77;2.40;;;;;;;;;;5053086;28;20036;-54
2024/01/22 02:12:32;;;;;;;2.67;1.50;;;;;;;;;;5052994;28;20112;-54
2024/01/22 02:14:58;;;;;;;3.00;1.80;;;;;;;;;;5053152;28;20098;-52
2024/01/22 02:17:24;;;;;;;3.90;2.07;;;;;;;;;;5053127;28;20029;-53
2024/01/22 02:19:50;;;;;;;3.90;1.83;;;;;;;;;;5053630;28;20025;-54
2024/01/22 02:22:16;;;;;;;3.50;1.60;;;;;;;;;;5053489;28;20120;-52
2024/01/22 02:24:42;;;;;;;3.63;1.83;;;;;;;;;;5053096;28;20067;-53
2024/01/22 02:27:08;;;;;;;2.23;1.53;;;;;;;;;;5053874;28;20031;-55
2024/01/22 02:29:34;;;;;;;4.90;1.90;;;;;;;;;;5057478;28;20025;-52
2024/01/22 02:32:00;;;;;;;2.70;2.10;;;;;;;;;;5056506;28;20116;-52
2024/01/22 02:34:26;;;;;;;3.73;1.90;;;;;;;;;;5056718;28;20029;-52
2024/01/22 02:36:52;;;;;;;4.45;1.90;;;;;;;;;;5056406;28;20021;-53
2024/01/22 02:39:17;;;;;;;3.63;1.70;;;;;;;;;;5056499;28;20025;-50
2024/01/22 02:41:43;;;;;;;3.67;2.00;;;;;;;;;;5056354;28;20534;-53
2024/01/22 02:44:09;;;;;;;5.53;2.27;;;;;;;;;;5056296;28;20033;-52
2024/01/22 02:46:35;;;;;;;3.95;2.83;;;;;;;;;;5056766;28;20025;-51
2024/01/22 02:49:01;;;;;;;2.80;1.60;;;;;;;;;;5056748;28;20076;-52
2024/01/22 02:51:27;;;;;;;3.70;2.50;;;;;;;;;;5055925;28;20115;-55
2024/01/22 02:53:53;;;;;;;3.40;2.10;;;;;;;;;;5056856;28;20017;-52
2024/01/22 02:56:20;;;;;;;4.73;1.10;;;;;;;;;;5056371;28;20059;-54
2024/01/22 02:58:46;;;;;;;5.57;1.70;;;;;;;;;;5056657;28;20032;-52
2024/01/22 03:01:12;;;;;;;3.67;1.60;;;;;;;;;;5056444;28;20025;-51
2024/01/22 03:03:40;;;;;;;7.17;1.97;;;;;;;;;;5055966;28;20033;-54
2024/01/22 03:06:06;;;;;;;2.87;1.63;;;;;;;;;;5055797;28;20538;-53
2024/01/22 03:08:32;;;;;;;3.90;2.20;;;;;;;;;;5056660;28;20064;-53
2024/01/22 03:10:58;;;;;;;5.87;2.20;;;;;;;;;;5055380;28;20029;-54
2024/01/22 03:13:24;;;;;;;2.87;1.60;;;;;;;;;;5055430;28;20032;-54
2024/01/22 03:15:50;;;;;;;6.33;2.43;;;;;;;;;;5055681;28;20025;-53
2024/01/22 03:18:16;;;;;;;2.70;1.50;;;;;;;;;;5056226;28;20021;-53
2024/01/22 03:20:42;;;;;;;4.60;2.27;;;;;;;;;;5055567;28;20032;-51
2024/01/22 03:23:08;;;;;;;3.90;1.90;;;;;;;;;;5055817;28;20025;-54
2024/01/22 03:25:34;;;;;;;3.50;1.60;;;;;;;;;;5055766;28;20035;-52
2024/01/22 03:27:59;;;;;;;3.77;2.23;;;;;;;;;;5056052;28;20453;-51
2024/01/22 03:30:25;;;;;;;2.57;1.70;;;;;;;;;;5055132;28;20060;-53
2024/01/22 03:32:51;;;;;;;6.53;2.30;;;;;;;;;;5055890;28;20064;-53
2024/01/22 03:35:17;;;;;;;3.67;2.33;;;;;;;;;;5055349;28;20068;-50
2024/01/22 03:37:43;;;;;;;3.30;1.97;;;;;;;;;;5055629;28;20048;-55
2024/01/22 03:40:12;;;;;;;3.28;2.10;;;;;;;;;;5055187;28;20029;-54
2024/01/22 03:42:38;;;;;;;6.23;2.13;;;;;;;;;;5055061;28;20140;-53
2024/01/22 03:45:04;;;;;;;3.20;2.33;;;;;;;;;;5055148;28;20060;-53
2024/01/22 03:47:30;;;;;;;5.07;1.85;;;;;;;;;;5055667;28;20480;-52
2024/01/22 03:49:56;;;;;;;3.95;2.38;;;;;;;;;;5055663;28;20155;-54
2024/01/22 03:52:22;;;;;;;6.97;2.78;;;;;;;;;;5055551;28;20056;-55
2024/01/22 03:54:48;;;;;;;2.85;2.15;;;;;;;;;;5054884;28;20044;-54
2024/01/22 03:57:14;;;;;;;3.03;2.25;;;;;;;;;;5054910;28;20032;-53
2024/01/22 03:59:42;;;;;;;4.47;2.13;;;;;;;;;;5055162;28;20033;-54
2024/01/22 04:02:08;;;;;;;4.28;2.47;;;;;;;;;;5054727;28;20037;-53
2024/01/22 04:04:34;;;;;;;4.95;2.78;;;;;;;;;;5055064;28;20044;-55
2024/01/22 04:07:00;;;;;;;4.68;2.45;;;;;;;;;;5054928;28;20025;-55
2024/01/22 04:09:26;;;;;;;4.18;2.38;;;;;;;;;;5055248;28;20027;-55
2024/01/22 04:11:52;;;;;;;4.28;2.13;;;;;;;;;;5054549;28;20033;-52
2024/01/22 04:14:18;;;;;;;3.13;2.05;;;;;;;;;;5054612;28;20096;-51
2024/01/22 04:16:44;;;;;;;3.85;2.28;;;;;;;;;;5055000;28;20116;-54
2024/01/22 04:19:10;;;;;;;6.47;2.97;;;;;;;;;;5054514;28;20104;-52
2024/01/22 04:21:43;;;;;;;2.72;1.60;;;;;;;;;;5054857;28;20379;-53
2024/01/22 04:24:09;;;;;;;4.50;1.98;;;;;;;;;;5054794;28;20082;-55
2024/01/22 04:26:35;;;;;;;3.80;2.53;;;;;;;;;;5054395;28;20017;-53
2024/01/22 04:29:01;;;;;;;4.15;2.42;;;;;;;;;;5054604;28;20080;-52
2024/01/22 04:31:27;;;;;;;6.18;2.75;;;;;;;;;;5054315;28;20406;-51
2024/01/22 04:33:54;;;;;;;2.90;2.35;;;;;;;;;;5054302;28;20131;-54
2024/01/22 04:36:20;;;;;;;3.83;2.70;;;;;;;;;;5054303;28;20413;-53
2024/01/22 04:38:46;;;;;;;3.78;2.10;;;;;;;;;;5054165;28;20025;-54
2024/01/22 04:41:12;;;;;;;3.22;2.17;;;;;;;;;;5054563;28;20083;-54
2024/01/22 04:43:38;;;;;;;5.20;2.53;;;;;;;;;;5053718;28;20103;-55
2024/01/22 04:46:04;;;;;;;2.58;2.00;;;;;;;;;;5054573;28;20063;-52
2024/01/22 04:48:30;;;;;;;6.30;2.60;;;;;;;;;;5054564;28;20113;-50
2024/01/22 04:50:56;;;;;;;3.80;1.98;;;;;;;;;;5053606;28;20431;-55
2024/01/22 04:53:22;;;;;;;4.32;2.28;;;;;;;;;;5053612;28;20071;-54
2024/01/22 04:55:48;;;;;;;3.80;1.92;;;;;;;;;;5054031;28;20041;-52
2024/01/22 04:58:13;;;;;;;5.20;1.88;;;;;;;;;;5054152;28;20036;-54
2024/01/22 05:00:39;;;;;;;8.32;2.60;;;;;;;;;;5053439;28;20021;-53
2024/01/22 05:03:05;;;;;;;2.63;1.73;;;;;;;;;;5054359;28;20029;-50
2024/01/22 05:05:32;;;;;;;3.42;1.77;;;;;;;;;;5053788;28;20017;-53
2024/01/22 05:07:58;;;;;;;2.72;1.70;;;;;;;;;;5054417;28;20063;-53
2024/01/22 05:10:24;;;;;;;2.33;1.65;;;;;;;;;;5053748;28;20063;-52
2024/01/22 05:12:50;;;;;;;2.72;1.85;;;;;;;;;;5053753;28;20033;-52
2024/01/22 05:15:16;;;;;;;2.78;1.67;;;;;;;;;;5054080;28;20056;-50
2024/01/22 05:17:42;;;;;;;3.22;2.05;;;;;;;;;;5053687;28;20021;-48
2024/01/22 05:20:08;;;;;;;3.42;2.05;;;;;;;;;;5053965;28;20025;-54
2024/01/22 05:22:35;;;;;;;5.57;2.15;;;;;;;;;;5054102;28;20362;-53
2024/01/22 05:25:01;;;;;;;2.30;1.40;;;;;;;;;;5053405;28;20033;-53
2024/01/22 05:27:27;;;;;;;4.95;1.50;;;;;;;;;;5053473;28;20106;-52
2024/01/22 05:29:53;;;;;;;5.72;1.85;;;;;;;;;;5051928;28;20490;-54
2024/01/22 05:32:19;;;;;;;5.05;2.40;;;;;;;;;;5053516;28;20462;-49
2024/01/22 05:34:44;;;;;;;2.45;1.52;;;;;;;;;;5053654;28;20021;-53
2024/01/22 05:37:10;;;;;;;7.40;2.13;;;;;;;;;;5053423;28;20087;-53
2024/01/22 05:39:36;;;;;;;2.58;1.60;;;;;;;;;;5053954;28;20447;-51
2024/01/22 05:42:05;;;;;;;5.93;1.73;;;;;;;;;;5053299;28;20116;-49
2024/01/22 05:44:31;;;;;;;3.40;1.83;;;;;;;;;;5053095;28;20083;-50
2024/01/22 05:46:57;;;;;;;7.93;2.35;;;;;;;;;;5053358;28;20059;-47
2024/01/22 05:49:24;;;;;;;3.35;1.25;;;;;;;;;;5053447;28;20052;-53
2024/01/22 05:51:50;;;;;;;3.05;1.92;;;;;;;;;;5053343;28;20033;-52
2024/01/22 05:54:16;;;;;;;3.80;2.05;;;;;;;;;;5053399;28;20056;-51
2024/01/22 05:56:42;;;;;;;2.40;1.52;;;;;;;;;;5053971;28;20018;-52
2024/01/22 05:59:08;;;;;;;2.75;1.50;;;;;;;;;;5053241;28;20451;-50
2024/01/22 06:01:34;;;;;;;4.53;1.77;;;;;;;;;;5055768;28;20040;-52
2024/01/22 06:04:00;;;;;;;2.72;1.55;;;;;;;;;;5056952;28;20197;-52
2024/01/22 06:06:26;;;;;;;2.67;1.52;;;;;;;;;;5056927;28;20029;-50
2024/01/22 06:08:52;;;;;;;2.60;1.40;;;;;;;;;;5057444;28;20033;-53
2024/01/22 06:11:19;;;;;;;2.28;1.17;;;;;;;;;;5056967;28;20534;-52
2024/01/22 06:13:44;;;;;;;3.03;1.60;;;;;;;;;;5057406;28;20501;-51
2024/01/22 06:16:11;;;;;;;3.08;1.50;;;;;;;;;;5056681;28;20033;-52
2024/01/22 06:18:38;;;;;;;2.13;1.30;;;;;;;;;;5057122;28;20098;-51
2024/01/22 06:21:04;;;;;;;2.42;1.40;;;;;;;;;;5057373;28;20025;-53
2024/01/22 06:23:31;;;;;;;2.40;1.40;;;;;;;;;;5056732;28;20459;-53
2024/01/22 06:25:57;;;;;;;2.50;1.73;;;;;;;;;;5056405;28;20059;-51
2024/01/22 06:28:24;;;;;;;3.15;1.73;;;;;;;;;;5057335;28;20025;-53
2024/01/22 06:30:49;;;;;;;2.22;1.17;;;;;;;;;;5056520;28;20029;-55
2024/01/22 06:33:15;;;;;;;3.78;1.45;;;;;;;;;;5056520;28;20029;-55
2024/01/22 06:35:41;;;;;;;2.85;1.63;;;;;;;;;;5056461;28;20031;-56
2024/01/22 06:38:07;;;;;;;5.75;1.52;;;;;;;;;;5056395;28;20032;-55
2024/01/22 06:40:34;;;;;;;3.92;1.48;;;;;;;;;;5056878;28;20336;-55
2024/01/22 06:43:00;;;;;;;3.22;1.65;;;;;;;;;;5056207;28;20455;-56
2024/01/22 06:45:26;;;;;;;3.72;1.70;;;;;;;;;;5056241;28;20029;-56
2024/01/22 06:47:55;;;;;;;3.42;1.88;;;;;;;;;;5055981;28;20059;-54
2024/01/22 06:50:21;;;;;;;5.07;1.75;;;;;;;;;;5056205;28;20375;-51
2024/01/22 06:52:46;;;;;;;3.42;1.90;;;;;;;;;;5056710;28;20033;-55
2024/01/22 06:55:13;;;;;;;3.90;1.60;;;;;;;;;;5056047;28;20051;-54
2024/01/22 06:57:39;;;;;;;3.22;1.35;;;;;;;;;;5056656;28;20048;-55
2024/01/22 07:00:09;;;;;;;4.05;1.40;;;;;;;;;;5056423;28;20451;-56
2024/01/22 07:02:35;;;;;;;2.03;1.20;;;;;;;;;;5055879;28;20033;-54
2024/01/22 07:05:04;;;;;;;2.95;1.80;;;;;;;;;;5055988;28;20029;-52
2024/01/22 07:07:30;;;;;;;3.22;1.60;;;;;;;;;;5056354;28;20312;-52
2024/01/22 07:09:56;;;;;;;4.25;1.65;;;;;;;;;;5056191;28;20017;-52
2024/01/22 07:12:22;;;;;;;1.77;1.00;;;;;;;;;;5055033;28;20031;-55
2024/01/22 07:14:48;;;;;;;2.13;1.00;;;;;;;;;;5055491;28;20021;-53
2024/01/22 07:17:15;;;;;;;2.22;1.25;;;;;;;;;;5055321;28;20100;-51
2024/01/22 07:19:42;;;;;;;2.00;1.20;;;;;;;;;;5056358;28;20032;-55
2024/01/22 07:22:08;;;;;;;3.28;1.73;;;;;;;;;;5055931;28;20024;-54
2024/01/22 07:24:34;;;;;;;2.88;1.50;;;;;;;;;;5055535;28;20087;-56
2024/01/22 07:27:00;;;;;;;3.38;1.98;;;;;;;;;;5055138;28;20025;-57
2024/01/22 07:29:26;;;;;;;3.75;1.30;;;;;;;;;;5055794;28;20029;-57
2024/01/22 07:31:52;;;;;;;1.77;0.93;;;;;;;;;;5055663;28;20035;-57
2024/01/22 07:34:17;;;;;;;2.85;1.30;;;;;;;;;;5055089;28;20032;-54
2024/01/22 07:36:43;;;;;;;2.75;1.50;;;;;;;;;;5055858;28;20081;-57
2024/01/22 07:39:11;;;;;;;2.35;1.13;;;;;;;;;;5055933;28;20067;-54
2024/01/22 07:41:40;;;;;;;1.63;0.95;;;;;;;;;;5055107;28;20029;-56
2024/01/22 07:44:06;;;;;;;4.97;1.50;;;;;;;;;;5055719;28;20025;-56
2024/01/22 07:46:32;;;;;;;1.23;0.65;;;;;;;;;;5055637;28;20368;-52
2024/01/22 07:48:59;;;;;;;3.33;1.23;;;;;;;;;;5055615;28;20032;-57
2024/01/22 07:51:29;;;;;;;2.33;1.17;;;;;;;;;;5055062;28;20485;-55
2024/01/22 07:53:55;;;;;;;2.33;1.15;;;;;;;;;;5055404;28;20025;-55
2024/01/22 07:56:21;;;;;;;2.03;0.98;;;;;;;;;;5054994;28;20029;-55
2024/01/22 07:58:47;;;;;;;2.03;1.08;;;;;;;;;;5054901;28;20021;-56
2024/01/22 08:01:14;;;;;;;2.03;1.10;;;;;;;;;;5054833;28;20029;-56
2024/01/22 08:03:40;;;;;;;1.98;0.98;;;;;;;;;;5054797;28;20082;-56
2024/01/22 08:06:06;;;;;;;3.33;1.15;;;;;;;;;;5054725;28;20047;-56
2024/01/22 08:08:32;;;;;;;1.65;0.90;;;;;;;;;;5055323;28;20017;-56
2024/01/22 08:10:58;;;;;;;2.30;1.05;;;;;;;;;;5054664;28;20055;-55
2024/01/22 08:13:24;;;;;;;2.08;1.08;;;;;;;;;;5054499;28;20025;-52
2024/01/22 08:15:50;;;;;;;1.45;0.80;;;;;;;;;;5055234;28;20187;-54
2024/01/22 08:18:16;;;;;;;2.90;0.93;;;;;;;;;;5055215;28;20044;-53
2024/01/22 08:20:42;;;;;;;2.88;1.00;;;;;;;;;;5054526;28;20029;-56
2024/01/22 08:23:09;;;;;;;2.08;0.95;;;;;;;;;;5054506;28;20048;-56
2024/01/22 08:25:36;;;;;;;1.42;0.70;;;;;;;;;;5054257;28;20086;-55
2024/01/22 08:28:02;;;;;;;5.35;0.82;;;;;;;;;;5054705;28;20025;-54
2024/01/22 08:30:29;;;;;;;1.00;0.50;;;;;;;;;;5054430;28;20052;-55
2024/01/22 08:33:20;;;;;;;1.42;0.60;;;;;;;;;;5055110;28;20037;-57
2024/01/22 08:35:46;;;;;;;2.17;1.52;;;;;;;;;;5051087;28;20041;-56
2024/01/22 08:38:13;;;;;;;2.13;0.65;;;;;;;;;;5054801;28;20031;-53
2024/01/22 08:40:39;;;;;;;1.73;0.80;;;;;;;;;;5054739;28;20386;-56
2024/01/22 08:43:05;;;;;;;1.13;0.43;;;;;;;;;;5054089;28;20032;-57
2024/01/22 08:45:33;;;;;;;0.98;0.47;;;;;;;;;;5054015;28;20382;-55
2024/01/22 08:47:59;;;;;;;1.77;0.80;;;;;;;;;;5055041;28;20027;-57
2024/01/22 08:50:25;;;;;;;2.67;0.70;;;;;;;;;;5054846;28;20029;-57
2024/01/22 08:52:57;;;;;;;2.78;0.98;;;;;;;;;;5054196;28;20082;-55
2024/01/22 08:55:23;;;;;;;1.55;0.70;;;;;;;;;;5054116;28;20123;-55
2024/01/22 08:57:49;;;;;;;1.73;0.73;;;;;;;;;;5053951;28;20486;-57
2024/01/22 09:00:16;;;;;;;1.13;0.55;;;;;;;;;;5053870;28;20021;-52
2024/01/22 09:02:42;;;;;;;1.27;0.70;;;;;;;;;;5054244;28;20029;-55
2024/01/22 09:05:09;;;;;;;2.20;0.93;;;;;;;;;;5053813;28;20040;-57
2024/01/22 09:07:35;;;;;;;1.80;0.85;;;;;;;;;;5054561;28;20040;-55
2024/01/22 09:10:06;;;;;;;1.42;0.70;;;;;;;;;;5054239;28;20021;-50
2024/01/22 09:12:33;;;;;;;0.82;0.43;;;;;;;;;;5053767;28;20094;-52
2024/01/22 09:14:59;;;;;;;2.25;0.77;;;;;;;;;;5053682;28;20375;-55
2024/01/22 09:17:25;;;;;;;1.42;0.68;;;;;;;;;;5054220;28;20060;-54
2024/01/22 09:19:51;;;;;;;0.98;0.45;;;;;;;;;;5053643;28;20025;-52
2024/01/22 09:22:19;;;;;;;1.58;0.77;;;;;;;;;;5053595;28;20035;-54
2024/01/22 09:24:45;;;;;;;0.68;0.40;;;;;;;;;;5053676;28;20064;-55
2024/01/22 09:27:11;;;;;;;3.38;0.75;;;;;;;;;;5053642;28;20047;-57
2024/01/22 09:29:37;;;;;;;0.73;0.30;;;;;;;;;;5054191;28;20017;-57
2024/01/22 09:32:03;;;;;;;0.73;0.40;;;;;;;;;;5054116;28;20086;-54
2024/01/22 09:34:29;;;;;;;1.00;0.55;;;;;;;;;;5053415;28;20064;-54
2024/01/22 09:36:55;;;;;;;1.70;0.95;;;;;;;;;;5056017;28;20455;-53
2024/01/22 09:39:22;;;;;;;1.20;0.65;;;;;;;;;;5057986;28;20070;-53
2024/01/22 09:41:51;;;;;;;0.57;0.30;;;;;;;;;;5057506;28;20029;-54
2024/01/22 09:44:17;;;;;;;1.02;0.52;;;;;;;;;;5057803;28;20115;-51
2024/01/22 09:46:44;;;;;;;1.05;0.50;;;;;;;;;;5057978;28;20078;-53
2024/01/22 09:49:10;;;;;;;0.70;0.30;;;;;;;;;;5057445;28;20025;-53
2024/01/22 09:51:36;;;;;;;0.80;0.40;;;;;;;;;;5057301;28;20041;-53
2024/01/22 09:54:09;;;;;;;0.90;0.43;;;;;;;;;;5055757;28;20040;-54
2024/01/22 09:56:36;;;;;;;1.27;0.40;;;;;;;;;;5057631;28;20025;-55
2024/01/22 09:59:09;;;;;;;1.35;0.60;;;;;;;;;;5057293;28;20355;-52
2024/01/22 10:01:36;;;;;;;1.02;0.60;;;;;;;;;;5057629;28;20446;-57
2024/01/22 10:04:04;;;;;;;1.00;0.55;;;;;;;;;;5056353;28;20382;-57
2024/01/22 10:06:33;;;;;;;0.65;0.30;;;;;;;;;;5057010;28;20022;-56
2024/01/22 10:08:59;;;;;;;2.65;0.38;;;;;;;;;;5057184;28;20053;-56
2024/01/22 10:11:25;;;;;;;0.82;0.38;;;;;;;;;;5056963;28;20025;-53
2024/01/22 10:13:52;;;;;;;0.75;0.32;;;;;;;;;;5057199;28;20025;-57
2024/01/22 10:16:18;;;;;;;2.72;0.60;;;;;;;;;;5057747;28;20024;-57
2024/01/22 10:19:00;;;;;;;0.70;0.30;;;;;;;;;;5056894;28;20482;-54
2024/01/22 10:21:26;;;;;;;0.77;0.35;;;;;;;;;;5056919;28;20274;-57
2024/01/22 10:23:56;;;;;;;0.77;0.40;;;;;;;;;;5056840;28;20033;-56
2024/01/22 10:26:22;;;;;;;2.53;0.90;;;;;;;;;;5056791;28;20029;-57
2024/01/22 10:28:48;;;;;;;1.50;0.73;;;;;;;;;;5056685;28;20067;-55
2024/01/22 10:31:14;;;;;;;1.08;0.32;;;;;;;;;;5057209;28;20080;-56
2024/01/22 10:33:40;;;;;;;0.63;0.28;;;;;;;;;;5056585;28;20366;-56
2024/01/22 10:36:14;;;;;;;2.63;0.38;;;;;;;;;;5056602;28;20414;-57
2024/01/22 10:38:40;;;;;;;1.92;0.60;;;;;;;;;;5057051;28;20451;-57
2024/01/22 10:41:16;;;;;;;0.60;0.40;;;;;;;;;;5056332;28;20032;-56
2024/01/22 10:43:43;;;;;;;2.33;0.60;;;;;;;;;;5056085;28;20471;-57
2024/01/22 10:46:11;;;;;;;0.70;0.20;;;;;;;;;;5056904;28;20048;-55
2024/01/22 10:48:42;;;;;;;0.95;0.35;;;;;;;;;;5055781;28;20367;-55
2024/01/22 10:51:08;;;;;;;0.82;0.40;;;;;;;;;;5057118;28;20017;-54
2024/01/22 10:53:34;;;;;;;0.63;0.30;;;;;;;;;;5056375;28;20025;-55
2024/01/22 10:56:01;;;;;;;0.90;0.50;;;;;;;;;;5056708;28;20053;-56
2024/01/22 10:58:28;;;;;;;0.70;0.30;;;;;;;;;;5056429;28;20060;-56
2024/01/22 11:00:57;;;;;;;0.60;0.20;;;;;;;;;;5056031;28;20029;-55
2024/01/22 11:03:26;;;;;;;0.70;0.30;;;;;;;;;;5056291;28;20377;-56
2024/01/22 11:05:55;;;;;;;0.45;0.22;;;;;;;;;;5055965;28;20021;-55
2024/01/22 11:08:21;;;;;;;1.20;0.50;;;;;;;;;;5056714;28;20060;-56
2024/01/22 11:10:50;;;;;;;0.43;0.20;;;;;;;;;;5055781;28;20036;-56
2024/01/22 11:13:17;;;;;;;0.75;0.30;;;;;;;;;;5055439;28;20479;-56
2024/01/22 11:15:43;;;;;;;0.95;0.20;;;;;;;;;;5056333;28;20029;-56
2024/01/22 11:18:10;;;;;;;0.63;0.30;;;;;;;;;;5056503;28;20351;-56
2024/01/22 11:20:38;;;;;;;0.50;0.20;;;;;;;;;;5055151;28;20037;-56
2024/01/22 11:23:08;;;;;;;0.63;0.35;;;;;;;;;;5055826;28;20534;-56
2024/01/22 11:25:34;;;;;;;2.45;0.60;;;;;;;;;;5055826;28;20048;-56
2024/01/22 11:28:04;;;;;;;0.98;0.38;;;;;;;;;;5055913;28;20025;-55
2024/01/22 11:30:35;;;;;;;1.48;0.43;;;;;;;;;;5055532;28;20033;-57
2024/01/22 11:33:01;;;;;;;0.65;0.32;;;;;;;;;;5055166;28;20029;-56
2024/01/22 11:35:34;;;;;;;1.58;0.70;;;;;;;;;;5055385;28;20108;-57
2024/01/22 11:38:01;;;;;;;0.90;0.35;;;;;;;;;;5055664;28;20459;-54
2024/01/22 11:40:46;;;;;;;1.27;0.60;;;;;;;;;;5056056;28;20455;-55
2024/01/22 11:43:12;;;;;;;1.63;0.50;;;;;;;;;;5054861;28;20021;-55
2024/01/22 11:45:38;;;;;;;0.43;0.20;;;;;;;;;;5055245;28;20067;-55
2024/01/22 11:48:14;;;;;;;0.95;0.50;;;;;;;;;;5055185;28;20029;-55
2024/01/22 11:50:40;;;;;;;0.65;0.30;;;;;;;;;;5055469;28;20025;-54
2024/01/22 11:53:06;;;;;;;1.00;0.40;;;;;;;;;;5054993;28;20036;-56
2024/01/22 11:55:32;;;;;;;1.17;0.47;;;;;;;;;;5055054;28;20056;-55
2024/01/22 11:57:58;;;;;;;0.57;0.30;;;;;;;;;;5055461;28;20028;-56
2024/01/22 12:00:24;;;;;;;0.95;0.40;;;;;;;;;;5054672;28;20036;-56
2024/01/22 12:02:51;;;;;;;0.68;0.40;;;;;;;;;;5055115;28;20036;-55
2024/01/22 12:05:19;;;;;;;1.23;0.50;;;;;;;;;;5054768;28;20119;-56
2024/01/22 12:07:46;;;;;;;0.80;0.30;;;;;;;;;;5055102;28;20383;-56
2024/01/22 12:10:22;;;;;;;1.65;0.30;;;;;;;;;;5054405;28;20505;-57
2024/01/22 12:12:49;;;;;;;0.88;0.32;;;;;;;;;;5054567;28;20220;-56
2024/01/22 12:15:15;;;;;;;1.15;0.40;;;;;;;;;;5055377;28;20027;-56
2024/01/22 12:17:44;;;;;;;0.60;0.20;;;;;;;;;;5054788;28;20112;-55
2024/01/22 12:20:10;;;;;;;0.52;0.28;;;;;;;;;;5054814;28;20029;-56
2024/01/22 12:22:36;;;;;;;0.50;0.22;;;;;;;;;;5054768;28;20033;-56
2024/01/22 12:25:09;;;;;;;0.35;0.20;;;;;;;;;;5054403;28;20033;-55
2024/01/22 12:27:36;;;;;;;0.95;0.35;;;;;;;;;;5054435;28;20057;-57
2024/01/22 12:30:03;;;;;;;0.60;0.20;;;;;;;;;;5054173;28;20025;-55
2024/01/22 12:32:29;;;;;;;0.75;0.20;;;;;;;;;;5054248;28;20041;-56
2024/01/22 12:34:58;;;;;;;1.55;0.40;;;;;;;;;;5054521;28;20104;-57
2024/01/22 12:37:27;;;;;;;1.08;0.28;;;;;;;;;;5054284;28;20025;-57
2024/01/22 12:40:06;;;;;;;0.35;0.20;;;;;;;;;;5054086;28;20498;-56
2024/01/22 12:42:32;;;;;;;0.82;0.35;;;;;;;;;;5054109;28;20111;-56
2024/01/22 12:44:58;;;;;;;0.75;0.30;;;;;;;;;;5054033;28;20029;-56
2024/01/22 12:47:25;;;;;;;0.52;0.20;;;;;;;;;;5054363;28;20021;-56
2024/01/22 12:49:52;;;;;;;0.85;0.30;;;;;;;;;;5054220;28;20066;-57
2024/01/22 12:52:18;;;;;;;0.20;0.10;;;;;;;;;;5053908;28;20152;-56
2024/01/22 12:54:45;;;;;;;0.60;0.20;;;;;;;;;;5053818;28;20060;-56
2024/01/22 12:57:11;;;;;;;0.45;0.20;;;;;;;;;;5053910;28;20060;-55
2024/01/22 12:59:37;;;;;;;0.82;0.25;;;;;;;;;;5054234;28;20017;-56
2024/01/22 13:02:03;;;;;;;0.30;0.10;;;;;;;;;;5053682;28;20033;-55
2024/01/22 13:04:29;;;;;;;0.38;0.20;;;;;;;;;;5053842;28;20112;-56
2024/01/22 13:06:54;;;;;;;0.50;0.20;;;;;;;;;;5053412;28;20031;-55
2024/01/22 13:09:21;;;;;;;0.77;0.20;;;;;;;;;;5054261;28;20025;-56
2024/01/22 13:11:48;;;;;;;0.52;0.30;;;;;;;;;;5053086;28;20386;-57
2024/01/22 13:14:14;;;;;;;0.38;0.20;;;;;;;;;;5053633;28;20025;-55
2024/01/22 13:16:40;;;;;;;0.73;0.30;;;;;;;;;;5053643;28;20036;-56
2024/01/22 13:19:06;;;;;;;1.05;0.40;;;;;;;;;;5054505;28;20038;-55
2024/01/22 13:21:32;;;;;;;0.70;0.20;;;;;;;;;;5053261;28;20033;-56
2024/01/22 13:23:58;;;;;;;0.88;0.20;;;;;;;;;;5053611;28;20086;-54
2024/01/22 13:26:24;;;;;;;0.60;0.22;;;;;;;;;;5054174;28;20443;-55
2024/01/22 13:28:51;;;;;;;0.20;0.10;;;;;;;;;;5053791;28;20063;-57
2024/01/22 13:31:17;;;;;;;0.32;0.20;;;;;;;;;;5054395;28;20033;-57
2024/01/22 13:33:44;;;;;;;0.47;0.20;;;;;;;;;;5053408;28;20025;-57
2024/01/22 13:36:10;;;;;;;0.35;0.15;;;;;;;;;;5053488;28;20379;-58
2024/01/22 13:38:36;;;;;;;0.20;0.10;;;;;;;;;;5053190;28;20593;-57
2024/01/22 13:41:05;;;;;;;0.40;0.17;;;;;;;;;;5053917;28;20029;-57
2024/01/22 13:43:31;;;;;;;0.55;0.20;;;;;;;;;;5053218;28;20363;-58
2024/01/22 13:45:57;;;;;;;0.93;0.40;;;;;;;;;;5053437;28;20032;-57
2024/01/22 13:48:23;;;;;;;0.13;0.00;;;;;;;;;;5053785;28;20027;-56
2024/01/22 13:50:49;;;;;;;0.55;0.20;;;;;;;;;;5053909;28;20022;-56
2024/01/22 13:53:16;;;;;;;1.42;0.20;;;;;;;;;;5053433;28;20029;-54
2024/01/22 13:55:42;;;;;;;0.63;0.20;;;;;;;;;;5053390;28;20130;-56
2024/01/22 13:58:10;;;;;;;0.45;0.10;;;;;;;;;;5053332;28;20112;-57
2024/01/22 14:00:36;;;;;;;0.17;0.10;;;;;;;;;;5053842;28;20033;-57
2024/01/22 14:03:04;;;;;;;0.00;0.00;;;;;;;;;;5053244;28;20035;-55
2024/01/22 14:05:30;;;;;;;0.55;0.20;;;;;;;;;;5053745;28;20033;-56
2024/01/22 14:07:56;;;;;;;0.45;0.20;;;;;;;;;;5053476;28;20029;-57
2024/01/22 14:10:22;;;;;;;0.60;0.30;;;;;;;;;;5053277;28;20028;-57
2024/01/22 14:12:48;;;;;;;0.75;0.35;;;;;;;;;;5053060;28;20114;-57
2024/01/22 14:15:14;;;;;;;0.32;0.20;;;;;;;;;;5053248;28;20021;-55
2024/01/22 14:17:40;;;;;;;1.05;0.47;;;;;;;;;;5053751;28;20379;-56
2024/01/22 14:20:07;;;;;;;0.17;0.10;;;;;;;;;;5052815;28;20029;-55
2024/01/22 14:22:34;;;;;;;0.75;0.30;;;;;;;;;;5055623;28;20132;-56
2024/01/22 14:25:00;;;;;;;0.80;0.25;;;;;;;;;;5057404;28;20029;-57
2024/01/22 14:27:26;;;;;;;1.08;0.40;;;;;;;;;;5056571;28;20045;-53
2024/01/22 14:29:52;;;;;;;0.40;0.20;;;;;;;;;;5057126;28;20025;-56
2024/01/22 14:32:18;;;;;;;0.93;0.50;;;;;;;;;;5056785;28;20032;-57
2024/01/22 14:34:44;;;;;;;0.45;0.25;;;;;;;;;;5056513;28;20029;-57
2024/01/22 14:37:10;;;;;;;0.60;0.28;;;;;;;;;;5056217;28;20049;-54
2024/01/22 14:39:36;;;;;;;0.40;0.20;;;;;;;;;;5056432;28;20056;-56